sensor_id;sensor_type;location;lat;lon;timestamp;P1;durP1;ratioP1;P2;durP2;ratioP2
17606;SDS011;69222;52.242;20.980;2023-07-22T00:01:33;4.75;;;4.28;;
17606;SDS011;69222;52.242;20.980;2023-07-22T00:04:01;5.63;;;4.65;;
17606;SDS011;69222;52.242;20.980;2023-07-22T00:06:29;7.43;;;4.82;;
17606;SDS011;69222;52.242;20.980;2023-07-22T00:08:57;4.32;;;3.92;;
17606;SDS011;69222;52.242;20.980;2023-07-22T00:11:27;4.88;;;4.47;;
17606;SDS011;69222;52.242;20.980;2023-07-22T00:13:55;6.25;;;4.47;;
17606;SDS011;69222;52.242;20.980;2023-07-22T00:16:22;6.88;;;4.25;;
17606;SDS011;69222;52.242;20.980;2023-07-22T00:18:51;4.85;;;4.38;;
17606;SDS011;69222;52.242;20.980;2023-07-22T00:21:20;4.20;;;3.83;;
17606;SDS011;69222;52.242;20.980;2023-07-22T00:23:48;3.85;;;3.55;;
17606;SDS011;69222;52.242;20.980;2023-07-22T00:26:15;4.00;;;3.63;;
17606;SDS011;69222;52.242;20.980;2023-07-22T00:28:44;4.47;;;4.03;;
17606;SDS011;69222;52.242;20.980;2023-07-22T00:31:12;4.90;;;3.55;;
17606;SDS011;69222;52.242;20.980;2023-07-22T00:33:41;4.55;;;4.05;;
17606;SDS011;69222;52.242;20.980;2023-07-22T00:36:09;4.15;;;3.75;;
17606;SDS011;69222;52.242;20.980;2023-07-22T00:38:38;6.40;;;4.00;;
17606;SDS011;69222;52.242;20.980;2023-07-22T00:41:06;4.57;;;3.80;;
17606;SDS011;69222;52.242;20.980;2023-07-22T00:43:34;5.35;;;3.97;;
17606;SDS011;69222;52.242;20.980;2023-07-22T00:46:04;6.82;;;3.95;;
17606;SDS011;69222;52.242;20.980;2023-07-22T00:48:32;4.53;;;4.13;;
17606;SDS011;69222;52.242;20.980;2023-07-22T00:51:00;5.38;;;4.18;;
17606;SDS011;69222;52.242;20.980;2023-07-22T00:53:28;5.30;;;4.15;;
17606;SDS011;69222;52.242;20.980;2023-07-22T00:55:56;5.32;;;4.05;;
17606;SDS011;69222;52.242;20.980;2023-07-22T00:58:24;4.97;;;4.22;;
17606;SDS011;69222;52.242;20.980;2023-07-22T01:00:52;4.88;;;4.45;;
17606;SDS011;69222;52.242;20.980;2023-07-22T01:03:22;4.28;;;3.88;;
17606;SDS011;69222;52.242;20.980;2023-07-22T01:05:51;6.30;;;4.00;;
17606;SDS011;69222;52.242;20.980;2023-07-22T01:08:21;4.07;;;3.67;;
17606;SDS011;69222;52.242;20.980;2023-07-22T01:10:49;4.70;;;4.22;;
17606;SDS011;69222;52.242;20.980;2023-07-22T01:13:17;5.43;;;4.75;;
17606;SDS011;69222;52.242;20.980;2023-07-22T01:15:45;5.03;;;4.22;;
17606;SDS011;69222;52.242;20.980;2023-07-22T01:18:15;4.97;;;4.47;;
17606;SDS011;69222;52.242;20.980;2023-07-22T01:20:44;5.65;;;4.35;;
17606;SDS011;69222;52.242;20.980;2023-07-22T01:23:15;4.60;;;4.20;;
17606;SDS011;69222;52.242;20.980;2023-07-22T01:25:44;4.57;;;4.18;;
17606;SDS011;69222;52.242;20.980;2023-07-22T01:28:12;6.20;;;4.75;;
17606;SDS011;69222;52.242;20.980;2023-07-22T01:30:40;6.18;;;5.40;;
17606;SDS011;69222;52.242;20.980;2023-07-22T01:33:08;6.00;;;5.40;;
17606;SDS011;69222;52.242;20.980;2023-07-22T01:35:36;6.38;;;5.70;;
17606;SDS011;69222;52.242;20.980;2023-07-22T01:38:04;6.72;;;5.68;;
17606;SDS011;69222;52.242;20.980;2023-07-22T01:40:36;6.03;;;5.43;;
17606;SDS011;69222;52.242;20.980;2023-07-22T01:43:04;7.80;;;4.95;;
17606;SDS011;69222;52.242;20.980;2023-07-22T01:45:32;5.55;;;5.05;;
17606;SDS011;69222;52.242;20.980;2023-07-22T01:48:00;5.63;;;5.05;;
17606;SDS011;69222;52.242;20.980;2023-07-22T01:50:28;5.45;;;4.95;;
17606;SDS011;69222;52.242;20.980;2023-07-22T01:52:56;5.68;;;5.18;;
17606;SDS011;69222;52.242;20.980;2023-07-22T01:55:24;5.70;;;5.20;;
17606;SDS011;69222;52.242;20.980;2023-07-22T01:57:53;7.57;;;5.22;;
17606;SDS011;69222;52.242;20.980;2023-07-22T02:00:21;6.53;;;5.50;;
17606;SDS011;69222;52.242;20.980;2023-07-22T02:02:49;5.75;;;5.25;;
17606;SDS011;69222;52.242;20.980;2023-07-22T02:05:17;6.20;;;5.60;;
17606;SDS011;69222;52.242;20.980;2023-07-22T02:07:45;6.53;;;5.05;;
17606;SDS011;69222;52.242;20.980;2023-07-22T02:10:13;6.28;;;5.63;;
17606;SDS011;69222;52.242;20.980;2023-07-22T02:12:41;6.20;;;5.60;;
17606;SDS011;69222;52.242;20.980;2023-07-22T02:15:11;6.95;;;5.68;;
17606;SDS011;69222;52.242;20.980;2023-07-22T02:17:39;8.57;;;5.55;;
17606;SDS011;69222;52.242;20.980;2023-07-22T02:20:08;6.05;;;5.45;;
17606;SDS011;69222;52.242;20.980;2023-07-22T02:22:36;7.38;;;5.50;;
17606;SDS011;69222;52.242;20.980;2023-07-22T02:25:04;6.80;;;5.43;;
17606;SDS011;69222;52.242;20.980;2023-07-22T02:27:33;5.63;;;5.13;;
17606;SDS011;69222;52.242;20.980;2023-07-22T02:30:02;6.75;;;6.15;;
17606;SDS011;69222;52.242;20.980;2023-07-22T02:32:32;6.18;;;5.68;;
17606;SDS011;69222;52.242;20.980;2023-07-22T02:35:00;8.02;;;6.45;;
17606;SDS011;69222;52.242;20.980;2023-07-22T02:37:28;6.78;;;6.07;;
17606;SDS011;69222;52.242;20.980;2023-07-22T02:39:56;7.28;;;6.65;;
17606;SDS011;69222;52.242;20.980;2023-07-22T02:42:24;6.93;;;6.22;;
17606;SDS011;69222;52.242;20.980;2023-07-22T02:44:52;7.90;;;6.07;;
17606;SDS011;69222;52.242;20.980;2023-07-22T02:47:20;7.28;;;6.57;;
17606;SDS011;69222;52.242;20.980;2023-07-22T02:49:49;9.98;;;6.90;;
17606;SDS011;69222;52.242;20.980;2023-07-22T02:52:17;7.93;;;6.60;;
17606;SDS011;69222;52.242;20.980;2023-07-22T02:55:03;7.10;;;6.50;;
17606;SDS011;69222;52.242;20.980;2023-07-22T02:57:33;8.20;;;7.30;;
17606;SDS011;69222;52.242;20.980;2023-07-22T03:00:02;8.45;;;7.57;;
17606;SDS011;69222;52.242;20.980;2023-07-22T03:02:34;7.88;;;7.18;;
17606;SDS011;69222;52.242;20.980;2023-07-22T03:05:04;7.68;;;6.97;;
17606;SDS011;69222;52.242;20.980;2023-07-22T03:07:34;7.50;;;6.85;;
17606;SDS011;69222;52.242;20.980;2023-07-22T03:10:02;8.20;;;7.40;;
17606;SDS011;69222;52.242;20.980;2023-07-22T03:12:31;8.40;;;7.22;;
17606;SDS011;69222;52.242;20.980;2023-07-22T03:14:59;8.13;;;7.22;;
17606;SDS011;69222;52.242;20.980;2023-07-22T03:17:27;10.98;;;7.60;;
17606;SDS011;69222;52.242;20.980;2023-07-22T03:19:56;8.00;;;7.25;;
17606;SDS011;69222;52.242;20.980;2023-07-22T03:22:25;7.63;;;6.93;;
17606;SDS011;69222;52.242;20.980;2023-07-22T03:24:53;8.18;;;7.38;;
17606;SDS011;69222;52.242;20.980;2023-07-22T03:27:21;8.30;;;7.60;;
17606;SDS011;69222;52.242;20.980;2023-07-22T03:29:49;8.15;;;7.05;;
17606;SDS011;69222;52.242;20.980;2023-07-22T03:32:17;8.00;;;7.20;;
17606;SDS011;69222;52.242;20.980;2023-07-22T03:34:45;8.35;;;6.88;;
17606;SDS011;69222;52.242;20.980;2023-07-22T03:37:13;8.05;;;7.20;;
17606;SDS011;69222;52.242;20.980;2023-07-22T03:39:42;8.02;;;7.22;;
17606;SDS011;69222;52.242;20.980;2023-07-22T03:42:10;7.57;;;6.85;;
17606;SDS011;69222;52.242;20.980;2023-07-22T03:44:38;9.55;;;7.25;;
17606;SDS011;69222;52.242;20.980;2023-07-22T03:47:07;7.97;;;7.13;;
17606;SDS011;69222;52.242;20.980;2023-07-22T03:49:35;7.70;;;6.93;;
17606;SDS011;69222;52.242;20.980;2023-07-22T03:52:03;8.05;;;7.25;;
17606;SDS011;69222;52.242;20.980;2023-07-22T03:54:31;7.90;;;6.45;;
17606;SDS011;69222;52.242;20.980;2023-07-22T03:57:01;7.78;;;6.97;;
17606;SDS011;69222;52.242;20.980;2023-07-22T03:59:29;7.60;;;6.90;;
17606;SDS011;69222;52.242;20.980;2023-07-22T04:01:56;8.77;;;7.50;;
17606;SDS011;69222;52.242;20.980;2023-07-22T04:04:24;8.15;;;7.03;;
17606;SDS011;69222;52.242;20.980;2023-07-22T04:06:52;7.88;;;6.82;;
17606;SDS011;69222;52.242;20.980;2023-07-22T04:09:20;10.05;;;6.90;;
17606;SDS011;69222;52.242;20.980;2023-07-22T04:11:48;8.18;;;7.35;;
17606;SDS011;69222;52.242;20.980;2023-07-22T04:14:17;8.98;;;6.78;;
17606;SDS011;69222;52.242;20.980;2023-07-22T04:16:45;7.55;;;6.85;;
17606;SDS011;69222;52.242;20.980;2023-07-22T04:19:14;7.78;;;7.07;;
17606;SDS011;69222;52.242;20.980;2023-07-22T04:21:43;7.07;;;6.28;;
17606;SDS011;69222;52.242;20.980;2023-07-22T04:24:11;8.43;;;6.10;;
17606;SDS011;69222;52.242;20.980;2023-07-22T04:26:40;6.78;;;5.93;;
17606;SDS011;69222;52.242;20.980;2023-07-22T04:29:09;6.03;;;5.53;;
17606;SDS011;69222;52.242;20.980;2023-07-22T04:31:39;7.25;;;6.20;;
17606;SDS011;69222;52.242;20.980;2023-07-22T04:34:07;6.78;;;5.85;;
17606;SDS011;69222;52.242;20.980;2023-07-22T04:36:35;7.00;;;6.30;;
17606;SDS011;69222;52.242;20.980;2023-07-22T04:39:03;6.82;;;6.15;;
17606;SDS011;69222;52.242;20.980;2023-07-22T04:41:32;8.57;;;6.15;;
17606;SDS011;69222;52.242;20.980;2023-07-22T04:44:00;6.88;;;6.28;;
17606;SDS011;69222;52.242;20.980;2023-07-22T04:46:28;8.27;;;6.40;;
17606;SDS011;69222;52.242;20.980;2023-07-22T04:48:58;6.90;;;6.30;;
17606;SDS011;69222;52.242;20.980;2023-07-22T04:51:26;8.27;;;6.65;;
17606;SDS011;69222;52.242;20.980;2023-07-22T04:53:54;7.28;;;6.50;;
17606;SDS011;69222;52.242;20.980;2023-07-22T04:56:22;7.18;;;6.47;;
17606;SDS011;69222;52.242;20.980;2023-07-22T04:58:51;7.93;;;6.60;;
17606;SDS011;69222;52.242;20.980;2023-07-22T05:01:19;6.72;;;6.03;;
17606;SDS011;69222;52.242;20.980;2023-07-22T05:03:47;7.10;;;6.40;;
17606;SDS011;69222;52.242;20.980;2023-07-22T05:06:16;8.10;;;7.30;;
17606;SDS011;69222;52.242;20.980;2023-07-22T05:08:44;7.32;;;6.75;;
17606;SDS011;69222;52.242;20.980;2023-07-22T05:11:12;9.15;;;6.32;;
17606;SDS011;69222;52.242;20.980;2023-07-22T05:13:40;7.93;;;6.28;;
17606;SDS011;69222;52.242;20.980;2023-07-22T05:16:08;7.18;;;6.53;;
17606;SDS011;69222;52.242;20.980;2023-07-22T05:18:36;7.03;;;6.32;;
17606;SDS011;69222;52.242;20.980;2023-07-22T05:21:05;7.38;;;6.72;;
17606;SDS011;69222;52.242;20.980;2023-07-22T05:23:34;7.78;;;7.03;;
17606;SDS011;69222;52.242;20.980;2023-07-22T05:26:02;7.55;;;6.80;;
17606;SDS011;69222;52.242;20.980;2023-07-22T05:28:30;6.78;;;6.18;;
17606;SDS011;69222;52.242;20.980;2023-07-22T05:30:58;6.50;;;5.90;;
17606;SDS011;69222;52.242;20.980;2023-07-22T05:33:26;9.63;;;6.38;;
17606;SDS011;69222;52.242;20.980;2023-07-22T05:35:54;10.13;;;6.00;;
17606;SDS011;69222;52.242;20.980;2023-07-22T05:38:22;8.30;;;5.97;;
17606;SDS011;69222;52.242;20.980;2023-07-22T05:40:52;10.43;;;6.32;;
17606;SDS011;69222;52.242;20.980;2023-07-22T05:43:20;14.20;;;6.47;;
17606;SDS011;69222;52.242;20.980;2023-07-22T05:45:48;8.30;;;5.45;;
17606;SDS011;69222;52.242;20.980;2023-07-22T05:48:16;7.00;;;6.40;;
17606;SDS011;69222;52.242;20.980;2023-07-22T05:50:44;6.75;;;5.95;;
17606;SDS011;69222;52.242;20.980;2023-07-22T05:53:12;5.88;;;5.30;;
17606;SDS011;69222;52.242;20.980;2023-07-22T05:55:40;7.18;;;6.22;;
17606;SDS011;69222;52.242;20.980;2023-07-22T05:58:16;7.32;;;5.65;;
17606;SDS011;69222;52.242;20.980;2023-07-22T06:00:45;7.20;;;6.10;;
17606;SDS011;69222;52.242;20.980;2023-07-22T06:03:13;6.25;;;5.68;;
17606;SDS011;69222;52.242;20.980;2023-07-22T06:05:41;5.80;;;5.30;;
17606;SDS011;69222;52.242;20.980;2023-07-22T06:08:09;6.63;;;5.47;;
17606;SDS011;69222;52.242;20.980;2023-07-22T06:10:37;7.60;;;6.00;;
17606;SDS011;69222;52.242;20.980;2023-07-22T06:13:05;6.53;;;5.93;;
17606;SDS011;69222;52.242;20.980;2023-07-22T06:15:35;7.30;;;5.53;;
17606;SDS011;69222;52.242;20.980;2023-07-22T06:18:03;6.50;;;5.50;;
17606;SDS011;69222;52.242;20.980;2023-07-22T06:20:34;5.72;;;5.20;;
17606;SDS011;69222;52.242;20.980;2023-07-22T06:23:02;5.13;;;4.68;;
17606;SDS011;69222;52.242;20.980;2023-07-22T06:25:30;6.35;;;5.13;;
17606;SDS011;69222;52.242;20.980;2023-07-22T06:27:58;5.55;;;4.95;;
17606;SDS011;69222;52.242;20.980;2023-07-22T06:30:26;5.57;;;4.95;;
17606;SDS011;69222;52.242;20.980;2023-07-22T06:32:56;5.05;;;4.65;;
17606;SDS011;69222;52.242;20.980;2023-07-22T06:35:24;5.90;;;4.70;;
17606;SDS011;69222;52.242;20.980;2023-07-22T06:37:52;5.65;;;5.00;;
17606;SDS011;69222;52.242;20.980;2023-07-22T06:40:20;6.50;;;4.95;;
17606;SDS011;69222;52.242;20.980;2023-07-22T06:42:47;4.75;;;4.35;;
17606;SDS011;69222;52.242;20.980;2023-07-22T06:45:16;5.30;;;3.88;;
17606;SDS011;69222;52.242;20.980;2023-07-22T06:47:44;13.70;;;4.55;;
17606;SDS011;69222;52.242;20.980;2023-07-22T06:50:15;4.90;;;3.97;;
17606;SDS011;69222;52.242;20.980;2023-07-22T06:52:43;5.18;;;4.07;;
17606;SDS011;69222;52.242;20.980;2023-07-22T06:55:11;4.70;;;4.22;;
17606;SDS011;69222;52.242;20.980;2023-07-22T06:57:40;5.18;;;3.42;;
17606;SDS011;69222;52.242;20.980;2023-07-22T07:00:08;4.15;;;3.20;;
17606;SDS011;69222;52.242;20.980;2023-07-22T07:02:37;3.80;;;3.13;;
17606;SDS011;69222;52.242;20.980;2023-07-22T07:05:05;3.75;;;2.63;;
17606;SDS011;69222;52.242;20.980;2023-07-22T07:07:35;3.00;;;2.72;;
17606;SDS011;69222;52.242;20.980;2023-07-22T07:10:03;4.50;;;2.50;;
17606;SDS011;69222;52.242;20.980;2023-07-22T07:12:32;2.47;;;2.28;;
17606;SDS011;69222;52.242;20.980;2023-07-22T07:15:00;2.63;;;2.15;;
17606;SDS011;69222;52.242;20.980;2023-07-22T07:17:28;7.88;;;2.58;;
17606;SDS011;69222;52.242;20.980;2023-07-22T07:19:56;3.63;;;2.70;;
17606;SDS011;69222;52.242;20.980;2023-07-22T07:22:24;3.05;;;2.70;;
17606;SDS011;69222;52.242;20.980;2023-07-22T07:24:54;3.17;;;2.60;;
17606;SDS011;69222;52.242;20.980;2023-07-22T07:27:22;3.85;;;2.72;;
17606;SDS011;69222;52.242;20.980;2023-07-22T07:29:50;3.28;;;2.97;;
17606;SDS011;69222;52.242;20.980;2023-07-22T07:32:20;2.70;;;2.50;;
17606;SDS011;69222;52.242;20.980;2023-07-22T07:34:49;3.10;;;2.78;;
17606;SDS011;69222;52.242;20.980;2023-07-22T07:37:17;4.22;;;2.95;;
17606;SDS011;69222;52.242;20.980;2023-07-22T07:39:45;2.80;;;2.40;;
17606;SDS011;69222;52.242;20.980;2023-07-22T07:42:15;5.78;;;2.42;;
17606;SDS011;69222;52.242;20.980;2023-07-22T07:44:43;3.30;;;2.65;;
17606;SDS011;69222;52.242;20.980;2023-07-22T07:47:11;2.63;;;2.40;;
17606;SDS011;69222;52.242;20.980;2023-07-22T07:49:39;3.25;;;2.25;;
17606;SDS011;69222;52.242;20.980;2023-07-22T07:52:07;5.13;;;2.42;;
17606;SDS011;69222;52.242;20.980;2023-07-22T07:54:35;7.22;;;1.95;;
17606;SDS011;69222;52.242;20.980;2023-07-22T07:57:03;2.38;;;1.98;;
17606;SDS011;69222;52.242;20.980;2023-07-22T07:59:34;4.22;;;1.70;;
17606;SDS011;69222;52.242;20.980;2023-07-22T08:02:05;4.35;;;1.77;;
17606;SDS011;69222;52.242;20.980;2023-07-22T08:04:36;2.58;;;1.88;;
17606;SDS011;69222;52.242;20.980;2023-07-22T08:07:05;1.77;;;1.67;;
17606;SDS011;69222;52.242;20.980;2023-07-22T08:09:34;3.78;;;1.98;;
17606;SDS011;69222;52.242;20.980;2023-07-22T08:12:03;2.50;;;1.77;;
17606;SDS011;69222;52.242;20.980;2023-07-22T08:14:31;1.67;;;1.58;;
17606;SDS011;69222;52.242;20.980;2023-07-22T08:17:01;2.88;;;1.48;;
17606;SDS011;69222;52.242;20.980;2023-07-22T08:19:30;2.78;;;1.75;;
17606;SDS011;69222;52.242;20.980;2023-07-22T08:21:58;2.83;;;1.73;;
17606;SDS011;69222;52.242;20.980;2023-07-22T08:24:26;2.65;;;1.85;;
17606;SDS011;69222;52.242;20.980;2023-07-22T08:26:54;2.67;;;1.65;;
17606;SDS011;69222;52.242;20.980;2023-07-22T08:29:22;1.70;;;1.60;;
17606;SDS011;69222;52.242;20.980;2023-07-22T08:31:50;3.33;;;1.77;;
17606;SDS011;69222;52.242;20.980;2023-07-22T08:34:19;1.75;;;1.52;;
17606;SDS011;69222;52.242;20.980;2023-07-22T08:36:47;3.00;;;1.70;;
17606;SDS011;69222;52.242;20.980;2023-07-22T08:39:16;2.65;;;1.58;;
17606;SDS011;69222;52.242;20.980;2023-07-22T08:41:45;3.50;;;1.80;;
17606;SDS011;69222;52.242;20.980;2023-07-22T08:44:17;2.28;;;1.50;;
17606;SDS011;69222;52.242;20.980;2023-07-22T08:46:50;2.20;;;1.50;;
17606;SDS011;69222;52.242;20.980;2023-07-22T08:49:24;2.20;;;1.70;;
17606;SDS011;69222;52.242;20.980;2023-07-22T08:51:54;2.58;;;1.30;;
17606;SDS011;69222;52.242;20.980;2023-07-22T08:54:24;2.25;;;1.50;;
17606;SDS011;69222;52.242;20.980;2023-07-22T08:56:53;4.00;;;1.67;;
17606;SDS011;69222;52.242;20.980;2023-07-22T08:59:21;3.20;;;1.45;;
17606;SDS011;69222;52.242;20.980;2023-07-22T09:01:49;3.33;;;1.67;;
17606;SDS011;69222;52.242;20.980;2023-07-22T09:04:19;1.95;;;1.35;;
17606;SDS011;69222;52.242;20.980;2023-07-22T09:06:48;2.38;;;1.70;;
17606;SDS011;69222;52.242;20.980;2023-07-22T09:09:17;2.15;;;1.55;;
17606;SDS011;69222;52.242;20.980;2023-07-22T09:11:45;3.88;;;2.30;;
17606;SDS011;69222;52.242;20.980;2023-07-22T09:14:14;1.95;;;1.67;;
17606;SDS011;69222;52.242;20.980;2023-07-22T09:17:02;1.92;;;1.60;;
17606;SDS011;69222;52.242;20.980;2023-07-22T09:19:31;4.90;;;1.95;;
17606;SDS011;69222;52.242;20.980;2023-07-22T09:22:01;2.60;;;1.80;;
17606;SDS011;69222;52.242;20.980;2023-07-22T09:24:29;2.75;;;2.05;;
17606;SDS011;69222;52.242;20.980;2023-07-22T09:26:57;4.75;;;2.00;;
17606;SDS011;69222;52.242;20.980;2023-07-22T09:29:33;1.98;;;1.60;;
17606;SDS011;69222;52.242;20.980;2023-07-22T09:32:02;1.65;;;1.55;;
17606;SDS011;69222;52.242;20.980;2023-07-22T09:34:31;2.05;;;1.85;;
17606;SDS011;69222;52.242;20.980;2023-07-22T09:37:00;1.83;;;1.73;;
17606;SDS011;69222;52.242;20.980;2023-07-22T09:39:30;2.30;;;1.60;;
17606;SDS011;69222;52.242;20.980;2023-07-22T09:41:58;2.15;;;1.92;;
17606;SDS011;69222;52.242;20.980;2023-07-22T09:44:29;1.70;;;1.60;;
17606;SDS011;69222;52.242;20.980;2023-07-22T09:46:58;2.30;;;1.92;;
17606;SDS011;69222;52.242;20.980;2023-07-22T09:49:33;2.28;;;1.50;;
17606;SDS011;69222;52.242;20.980;2023-07-22T09:52:06;1.73;;;1.40;;
17606;SDS011;69222;52.242;20.980;2023-07-22T09:54:40;2.70;;;1.65;;
17606;SDS011;69222;52.242;20.980;2023-07-22T09:57:14;1.60;;;1.50;;
17606;SDS011;69222;52.242;20.980;2023-07-22T09:59:42;1.70;;;1.50;;
17606;SDS011;69222;52.242;20.980;2023-07-22T10:02:10;1.83;;;1.50;;
17606;SDS011;69222;52.242;20.980;2023-07-22T10:04:39;2.50;;;1.75;;
17606;SDS011;69222;52.242;20.980;2023-07-22T10:07:09;1.30;;;1.20;;
17606;SDS011;69222;52.242;20.980;2023-07-22T10:09:38;1.60;;;1.33;;
17606;SDS011;69222;52.242;20.980;2023-07-22T10:12:07;2.50;;;1.17;;
17606;SDS011;69222;52.242;20.980;2023-07-22T10:14:35;1.25;;;1.02;;
17606;SDS011;69222;52.242;20.980;2023-07-22T10:17:04;1.45;;;1.33;;
17606;SDS011;69222;52.242;20.980;2023-07-22T10:19:35;0.95;;;0.93;;
17606;SDS011;69222;52.242;20.980;2023-07-22T10:22:04;1.20;;;1.08;;
17606;SDS011;69222;52.242;20.980;2023-07-22T10:24:35;1.40;;;0.98;;
17606;SDS011;69222;52.242;20.980;2023-07-22T10:27:04;0.98;;;0.93;;
17606;SDS011;69222;52.242;20.980;2023-07-22T10:29:34;2.08;;;1.23;;
17606;SDS011;69222;52.242;20.980;2023-07-22T10:32:03;2.70;;;0.95;;
17606;SDS011;69222;52.242;20.980;2023-07-22T10:34:31;0.88;;;0.88;;
17606;SDS011;69222;52.242;20.980;2023-07-22T10:36:59;2.72;;;2.33;;
17606;SDS011;69222;52.242;20.980;2023-07-22T10:39:27;2.10;;;0.90;;
17606;SDS011;69222;52.242;20.980;2023-07-22T10:42:01;2.25;;;1.10;;
17606;SDS011;69222;52.242;20.980;2023-07-22T10:44:31;2.30;;;1.00;;
17606;SDS011;69222;52.242;20.980;2023-07-22T10:47:00;1.40;;;1.10;;
17606;SDS011;69222;52.242;20.980;2023-07-22T10:49:42;1.30;;;1.08;;
17606;SDS011;69222;52.242;20.980;2023-07-22T10:52:11;3.55;;;1.30;;
17606;SDS011;69222;52.242;20.980;2023-07-22T10:54:40;2.47;;;1.15;;
17606;SDS011;69222;52.242;20.980;2023-07-22T10:57:25;2.15;;;1.23;;
17606;SDS011;69222;52.242;20.980;2023-07-22T10:59:55;1.13;;;1.02;;
17606;SDS011;69222;52.242;20.980;2023-07-22T11:02:24;0.82;;;0.82;;
17606;SDS011;69222;52.242;20.980;2023-07-22T11:04:55;1.20;;;1.10;;
17606;SDS011;69222;52.242;20.980;2023-07-22T11:07:29;2.67;;;1.27;;
17606;SDS011;69222;52.242;20.980;2023-07-22T11:10:06;2.53;;;1.00;;
17606;SDS011;69222;52.242;20.980;2023-07-22T11:12:41;1.73;;;1.13;;
17606;SDS011;69222;52.242;20.980;2023-07-22T11:15:10;4.60;;;1.00;;
17606;SDS011;69222;52.242;20.980;2023-07-22T11:17:42;1.25;;;1.15;;
17606;SDS011;69222;52.242;20.980;2023-07-22T11:20:10;1.10;;;1.05;;
17606;SDS011;69222;52.242;20.980;2023-07-22T11:22:38;1.60;;;1.00;;
17606;SDS011;69222;52.242;20.980;2023-07-22T11:25:07;1.20;;;1.13;;
17606;SDS011;69222;52.242;20.980;2023-07-22T11:27:36;3.28;;;1.35;;
17606;SDS011;69222;52.242;20.980;2023-07-22T11:30:06;1.23;;;0.93;;
17606;SDS011;69222;52.242;20.980;2023-07-22T11:32:41;1.85;;;1.00;;
17606;SDS011;69222;52.242;20.980;2023-07-22T11:35:10;1.38;;;0.90;;
17606;SDS011;69222;52.242;20.980;2023-07-22T11:37:38;3.08;;;1.15;;
17606;SDS011;69222;52.242;20.980;2023-07-22T11:40:06;1.73;;;1.02;;
17606;SDS011;69222;52.242;20.980;2023-07-22T11:42:38;1.92;;;1.25;;
17606;SDS011;69222;52.242;20.980;2023-07-22T11:45:08;1.38;;;1.13;;
17606;SDS011;69222;52.242;20.980;2023-07-22T11:47:36;1.63;;;1.20;;
17606;SDS011;69222;52.242;20.980;2023-07-22T11:50:05;2.67;;;1.20;;
17606;SDS011;69222;52.242;20.980;2023-07-22T11:52:34;5.45;;;1.35;;
17606;SDS011;69222;52.242;20.980;2023-07-22T11:55:02;1.40;;;1.30;;
17606;SDS011;69222;52.242;20.980;2023-07-22T11:57:30;1.88;;;1.00;;
17606;SDS011;69222;52.242;20.980;2023-07-22T11:59:58;4.13;;;1.33;;
17606;SDS011;69222;52.242;20.980;2023-07-22T12:02:28;2.10;;;1.88;;
17606;SDS011;69222;52.242;20.980;2023-07-22T12:05:00;2.22;;;1.30;;
17606;SDS011;69222;52.242;20.980;2023-07-22T12:07:29;1.75;;;1.55;;
17606;SDS011;69222;52.242;20.980;2023-07-22T12:10:00;1.23;;;1.13;;
17606;SDS011;69222;52.242;20.980;2023-07-22T12:12:33;1.63;;;1.20;;
17606;SDS011;69222;52.242;20.980;2023-07-22T12:15:02;1.40;;;1.30;;
17606;SDS011;69222;52.242;20.980;2023-07-22T12:17:44;3.15;;;1.30;;
17606;SDS011;69222;52.242;20.980;2023-07-22T12:20:13;1.30;;;1.23;;
17606;SDS011;69222;52.242;20.980;2023-07-22T12:22:42;1.92;;;1.35;;
17606;SDS011;69222;52.242;20.980;2023-07-22T12:25:10;1.40;;;1.27;;
17606;SDS011;69222;52.242;20.980;2023-07-22T12:27:38;1.77;;;1.30;;
17606;SDS011;69222;52.242;20.980;2023-07-22T12:30:07;5.78;;;1.60;;
17606;SDS011;69222;52.242;20.980;2023-07-22T12:32:36;3.97;;;1.40;;
17606;SDS011;69222;52.242;20.980;2023-07-22T12:35:07;2.08;;;1.23;;
17606;SDS011;69222;52.242;20.980;2023-07-22T12:37:36;1.00;;;1.00;;
17606;SDS011;69222;52.242;20.980;2023-07-22T12:40:07;1.33;;;1.23;;
17606;SDS011;69222;52.242;20.980;2023-07-22T12:42:39;1.92;;;1.30;;
17606;SDS011;69222;52.242;20.980;2023-07-22T12:45:08;1.92;;;1.20;;
17606;SDS011;69222;52.242;20.980;2023-07-22T12:47:37;2.20;;;1.20;;
17606;SDS011;69222;52.242;20.980;2023-07-22T12:50:06;1.55;;;1.35;;
17606;SDS011;69222;52.242;20.980;2023-07-22T12:52:35;1.30;;;1.20;;
17606;SDS011;69222;52.242;20.980;2023-07-22T12:55:03;2.38;;;1.10;;
17606;SDS011;69222;52.242;20.980;2023-07-22T12:57:32;1.35;;;1.25;;
17606;SDS011;69222;52.242;20.980;2023-07-22T13:00:00;2.35;;;1.10;;
17606;SDS011;69222;52.242;20.980;2023-07-22T13:02:28;1.52;;;1.42;;
17606;SDS011;69222;52.242;20.980;2023-07-22T13:04:56;1.25;;;1.15;;
17606;SDS011;69222;52.242;20.980;2023-07-22T13:07:25;1.63;;;1.30;;
17606;SDS011;69222;52.242;20.980;2023-07-22T13:09:53;2.22;;;1.30;;
17606;SDS011;69222;52.242;20.980;2023-07-22T13:12:23;2.00;;;1.27;;
17606;SDS011;69222;52.242;20.980;2023-07-22T13:14:51;1.75;;;1.27;;
17606;SDS011;69222;52.242;20.980;2023-07-22T13:17:21;2.25;;;1.45;;
17606;SDS011;69222;52.242;20.980;2023-07-22T13:19:50;1.50;;;1.40;;
17606;SDS011;69222;52.242;20.980;2023-07-22T13:22:17;1.33;;;1.23;;
17606;SDS011;69222;52.242;20.980;2023-07-22T13:24:47;1.42;;;1.27;;
17606;SDS011;69222;52.242;20.980;2023-07-22T13:27:15;1.40;;;1.30;;
17606;SDS011;69222;52.242;20.980;2023-07-22T13:29:43;2.25;;;1.50;;
17606;SDS011;69222;52.242;20.980;2023-07-22T13:32:11;3.88;;;1.40;;
17606;SDS011;69222;52.242;20.980;2023-07-22T13:34:39;1.83;;;1.35;;
17606;SDS011;69222;52.242;20.980;2023-07-22T13:37:07;2.55;;;1.30;;
17606;SDS011;69222;52.242;20.980;2023-07-22T13:39:35;1.33;;;1.05;;
17606;SDS011;69222;52.242;20.980;2023-07-22T13:42:05;2.22;;;1.20;;
17606;SDS011;69222;52.242;20.980;2023-07-22T13:44:34;1.52;;;1.30;;
17606;SDS011;69222;52.242;20.980;2023-07-22T13:47:05;3.33;;;1.30;;
17606;SDS011;69222;52.242;20.980;2023-07-22T13:49:34;1.20;;;1.10;;
17606;SDS011;69222;52.242;20.980;2023-07-22T13:52:01;2.10;;;1.52;;
17606;SDS011;69222;52.242;20.980;2023-07-22T13:54:30;1.40;;;1.30;;
17606;SDS011;69222;52.242;20.980;2023-07-22T13:56:57;2.58;;;1.40;;
17606;SDS011;69222;52.242;20.980;2023-07-22T13:59:27;2.80;;;1.40;;
17606;SDS011;69222;52.242;20.980;2023-07-22T14:01:55;1.73;;;1.40;;
17606;SDS011;69222;52.242;20.980;2023-07-22T14:04:23;2.63;;;1.30;;
17606;SDS011;69222;52.242;20.980;2023-07-22T14:06:51;2.97;;;1.60;;
17606;SDS011;69222;52.242;20.980;2023-07-22T14:09:19;2.67;;;1.50;;
17606;SDS011;69222;52.242;20.980;2023-07-22T14:11:47;3.22;;;1.40;;
17606;SDS011;69222;52.242;20.980;2023-07-22T14:14:15;1.38;;;1.27;;
17606;SDS011;69222;52.242;20.980;2023-07-22T14:16:44;1.65;;;1.55;;
17606;SDS011;69222;52.242;20.980;2023-07-22T14:19:12;1.75;;;1.50;;
17606;SDS011;69222;52.242;20.980;2023-07-22T14:21:40;1.30;;;1.20;;
17606;SDS011;69222;52.242;20.980;2023-07-22T14:24:08;3.45;;;1.50;;
17606;SDS011;69222;52.242;20.980;2023-07-22T14:26:36;1.50;;;1.40;;
17606;SDS011;69222;52.242;20.980;2023-07-22T14:29:05;2.85;;;1.25;;
17606;SDS011;69222;52.242;20.980;2023-07-22T14:31:34;1.65;;;1.42;;
17606;SDS011;69222;52.242;20.980;2023-07-22T14:34:07;1.48;;;1.20;;
17606;SDS011;69222;52.242;20.980;2023-07-22T14:36:35;4.03;;;1.23;;
17606;SDS011;69222;52.242;20.980;2023-07-22T14:39:03;2.97;;;1.40;;
17606;SDS011;69222;52.242;20.980;2023-07-22T14:41:32;1.90;;;1.63;;
17606;SDS011;69222;52.242;20.980;2023-07-22T14:44:00;1.40;;;1.30;;